Time;durP1;ratioP1;P1;durP2;ratioP2;P2;SDS_P1;SDS_P2;PMS_P1;PMS_P2;Temp;Humidity;BMP_temperature;BMP_pressure;BME280_temperature;BME280_humidity;BME280_pressure;Samples;Min_cycle;Max_cycle;Signal;HPM_P1;HPM_P2
2023/05/15 00:01:26;;;;;;;8.05;5.68;;;;;;;;;;5060179;28;20059;-90
2023/05/15 00:03:53;;;;;;;7.85;5.40;;;;;;;;;;5059194;28;20342;-90
2023/05/15 00:06:20;;;;;;;9.35;5.72;;;;;;;;;;5060003;28;20521;-89
2023/05/15 00:08:46;;;;;;;8.48;5.78;;;;;;;;;;5059041;28;20040;-90
2023/05/15 00:11:12;;;;;;;9.40;5.88;;;;;;;;;;5060184;28;20411;-89
2023/05/15 00:16:42;;;;;;;8.75;5.70;;;;;;;;;;5059176;28;20036;-91
2023/05/15 00:19:08;;;;;;;7.93;6.30;;;;;;;;;;5060166;28;20067;-90
2023/05/15 00:21:34;;;;;;;9.32;5.93;;;;;;;;;;5058606;28;20068;-90
2023/05/15 00:24:00;;;;;;;8.85;5.80;;;;;;;;;;5059896;28;20028;-89
2023/05/15 00:26:26;;;;;;;9.90;6.13;;;;;;;;;;5058680;28;20021;-90
2023/05/15 00:28:52;;;;;;;9.73;6.20;;;;;;;;;;5058654;28;20032;-91
2023/05/15 00:31:18;;;;;;;7.70;5.63;;;;;;;;;;5059391;28;20060;-91
2023/05/15 00:33:44;;;;;;;9.48;6.15;;;;;;;;;;5059858;28;20032;-91
2023/05/15 00:36:10;;;;;;;7.50;5.93;;;;;;;;;;5059537;28;20408;-90
2023/05/15 00:38:36;;;;;;;10.15;6.63;;;;;;;;;;5048393;28;20069;-87
2023/05/15 00:41:04;;;;;;;7.70;5.75;;;;;;;;;;5039594;28;20060;-87
2023/05/15 00:43:30;;;;;;;11.27;6.25;;;;;;;;;;5038391;28;20021;-87
2023/05/15 00:45:57;;;;;;;10.32;5.68;;;;;;;;;;5045867;28;20024;-87
2023/05/15 00:48:24;;;;;;;10.85;6.32;;;;;;;;;;5059122;28;20021;-87
2023/05/15 00:50:50;;;;;;;14.52;6.35;;;;;;;;;;5059488;28;20056;-88
2023/05/15 00:53:17;;;;;;;6.78;5.65;;;;;;;;;;5058178;28;20021;-86
2023/05/15 00:55:45;;;;;;;10.85;6.65;;;;;;;;;;5058958;28;20017;-85
2023/05/15 01:01:16;;;;;;;8.57;5.65;;;;;;;;;;5059015;28;20040;-86
2023/05/15 01:03:42;;;;;;;11.38;6.07;;;;;;;;;;5057951;28;20056;-85
2023/05/15 01:06:08;;;;;;;10.00;6.50;;;;;;;;;;5058406;28;20396;-87
2023/05/15 01:08:42;;;;;;;8.43;5.85;;;;;;;;;;5058744;28;20036;-90
2023/05/15 01:11:08;;;;;;;13.00;6.50;;;;;;;;;;5059110;28;20350;-90
2023/05/15 01:16:40;;;;;;;11.70;6.70;;;;;;;;;;5058858;28;20032;-89
2023/05/15 01:19:06;;;;;;;13.18;6.30;;;;;;;;;;5057786;28;20063;-89
2023/05/15 01:21:35;;;;;;;11.60;6.57;;;;;;;;;;5057614;28;20036;-89
2023/05/15 01:24:20;;;;;;;11.27;6.78;;;;;;;;;;5046826;28;20022;-89
2023/05/15 01:30:19;;;;;;;11.25;6.82;;;;;;;;;;5038172;28;20315;-89
2023/05/15 01:33:01;;;;;;;8.27;6.78;;;;;;;;;;5037934;28;20332;-89
2023/05/15 01:35:33;;;;;;;10.60;6.70;;;;;;;;;;5038373;28;20038;-90
2023/05/15 01:38:05;;;;;;;10.73;6.63;;;;;;;;;;5038613;28;20028;-90
2023/05/15 01:40:31;;;;;;;12.00;6.65;;;;;;;;;;5038138;28;20030;-88
2023/05/15 01:46:00;;;;;;;11.82;6.68;;;;;;;;;;5038527;28;20028;-86
2023/05/15 01:48:28;;;;;;;11.40;6.60;;;;;;;;;;5038359;28;20312;-87
2023/05/15 01:50:54;;;;;;;11.52;7.55;;;;;;;;;;5037311;28;20030;-87
2023/05/15 01:53:20;;;;;;;12.80;7.32;;;;;;;;;;5038320;28;20025;-87
2023/05/15 01:55:48;;;;;;;14.40;7.35;;;;;;;;;;5037986;28;20442;-87
2023/05/15 01:58:15;;;;;;;10.38;7.03;;;;;;;;;;5038204;28;20033;-81
2023/05/15 02:00:41;;;;;;;13.05;8.20;;;;;;;;;;5036686;28;20037;-88
2023/05/15 02:03:09;;;;;;;12.80;7.80;;;;;;;;;;5036857;28;20073;-88
2023/05/15 02:05:35;;;;;;;11.85;8.25;;;;;;;;;;5038107;28;20026;-88
2023/05/15 02:08:03;;;;;;;10.65;8.85;;;;;;;;;;5036881;28;20040;-88
2023/05/15 02:10:30;;;;;;;11.32;8.93;;;;;;;;;;5037846;28;20471;-89
2023/05/15 02:19:37;;;;;;;13.52;8.27;;;;;;;;;;5058049;28;20028;-89
2023/05/15 02:22:03;;;;;;;12.52;8.05;;;;;;;;;;5056504;28;20075;-89
2023/05/15 02:24:29;;;;;;;11.00;8.43;;;;;;;;;;5057836;28;20025;-88
2023/05/15 02:27:04;;;;;;;10.70;8.77;;;;;;;;;;5056850;28;20025;-88
2023/05/15 02:29:42;;;;;;;11.73;8.27;;;;;;;;;;5056483;28;20029;-87
2023/05/15 02:32:26;;;;;;;10.52;8.13;;;;;;;;;;5057350;28;20124;-89
2023/05/15 02:35:03;;;;;;;10.45;8.23;;;;;;;;;;5056592;28;20039;-89
2023/05/15 02:37:31;;;;;;;12.07;8.63;;;;;;;;;;5057475;28;20021;-87
2023/05/15 02:39:58;;;;;;;12.43;9.10;;;;;;;;;;5058205;28;20036;-88
2023/05/15 02:42:26;;;;;;;16.60;8.85;;;;;;;;;;5060676;28;20037;-87
2023/05/15 02:44:53;;;;;;;10.25;9.02;;;;;;;;;;5060532;28;20021;-87
2023/05/15 02:47:20;;;;;;;10.15;8.80;;;;;;;;;;5061405;28;20413;-87
2023/05/15 02:49:46;;;;;;;13.20;9.15;;;;;;;;;;5061517;28;20040;-87
2023/05/15 02:52:12;;;;;;;11.07;8.70;;;;;;;;;;5061698;28;20021;-87
2023/05/15 02:54:38;;;;;;;12.23;9.63;;;;;;;;;;5060461;28;20140;-87
2023/05/15 02:57:06;;;;;;;14.30;9.85;;;;;;;;;;5060385;28;20044;-87
2023/05/15 02:59:32;;;;;;;16.02;9.70;;;;;;;;;;5061373;28;20025;-87
2023/05/15 03:01:59;;;;;;;13.85;10.02;;;;;;;;;;5061248;28;20430;-86
2023/05/15 03:04:25;;;;;;;13.27;9.73;;;;;;;;;;5060247;28;20032;-87
2023/05/15 03:06:51;;;;;;;17.38;10.20;;;;;;;;;;5060899;28;20419;-87
2023/05/15 03:09:17;;;;;;;16.17;10.00;;;;;;;;;;5061269;28;20422;-87
2023/05/15 03:11:43;;;;;;;14.45;11.23;;;;;;;;;;5060877;28;20396;-87
2023/05/15 03:14:09;;;;;;;40.80;18.13;;;;;;;;;;5061027;28;20021;-86
2023/05/15 03:16:38;;;;;;;22.55;14.30;;;;;;;;;;5060093;28;20048;-86
2023/05/15 03:19:04;;;;;;;30.05;15.65;;;;;;;;;;5061194;28;20025;-89
2023/05/15 03:21:31;;;;;;;44.88;21.58;;;;;;;;;;5058995;28;20188;-88
2023/05/15 03:23:57;;;;;;;35.03;16.85;;;;;;;;;;5046602;28;20025;-87
2023/05/15 03:26:23;;;;;;;31.00;16.15;;;;;;;;;;5060862;28;20029;-87
2023/05/15 03:28:49;;;;;;;27.70;15.70;;;;;;;;;;5060606;28;20089;-87
2023/05/15 03:31:15;;;;;;;35.20;17.50;;;;;;;;;;5058584;28;20339;-87
2023/05/15 03:33:44;;;;;;;29.00;16.38;;;;;;;;;;5060567;28;20404;-87
2023/05/15 03:36:11;;;;;;;24.60;15.07;;;;;;;;;;5052552;28;20025;-91
2023/05/15 03:38:37;;;;;;;38.72;20.17;;;;;;;;;;5053106;28;20032;-87
2023/05/15 03:41:03;;;;;;;59.25;25.83;;;;;;;;;;5060665;28;20027;-87
2023/05/15 03:46:32;;;;;;;36.45;20.95;;;;;;;;;;5040544;28;20032;-86
2023/05/15 03:48:58;;;;;;;28.48;19.38;;;;;;;;;;5040320;28;20117;-87
2023/05/15 03:51:24;;;;;;;24.38;17.92;;;;;;;;;;5039096;28;20061;-86
2023/05/15 03:53:50;;;;;;;21.65;16.27;;;;;;;;;;5040225;28;20060;-86
2023/05/15 03:56:17;;;;;;;25.83;17.17;;;;;;;;;;5055531;28;20029;-86
2023/05/15 03:58:43;;;;;;;44.13;25.15;;;;;;;;;;5060410;28;20037;-87
2023/05/15 04:01:09;;;;;;;38.22;23.13;;;;;;;;;;5059985;28;20033;-87
2023/05/15 04:03:35;;;;;;;27.60;16.90;;;;;;;;;;5073271;22;20019;-87
2023/05/15 04:06:01;;;;;;;21.80;15.48;;;;;;;;;;5080261;28;20048;-86
2023/05/15 04:08:27;;;;;;;28.65;17.48;;;;;;;;;;5080417;28;20032;-87
2023/05/15 04:10:53;;;;;;;37.05;19.48;;;;;;;;;;5080239;28;20021;-89
2023/05/15 04:16:38;;;;;;;22.17;15.27;;;;;;;;;;5080220;28;20023;-90
2023/05/15 04:19:04;;;;;;;19.75;14.32;;;;;;;;;;5079917;28;20032;-89
2023/05/15 04:21:30;;;;;;;25.15;15.32;;;;;;;;;;5079652;28;20058;-89
2023/05/15 04:23:56;;;;;;;22.02;14.98;;;;;;;;;;5079866;28;20033;-89
2023/05/15 04:26:22;;;;;;;31.88;17.75;;;;;;;;;;5079600;28;20023;-89
2023/05/15 04:31:52;;;;;;;60.35;24.63;;;;;;;;;;5079705;28;20463;-86
2023/05/15 04:34:18;;;;;;;63.92;26.58;;;;;;;;;;5079397;28;20020;-88
2023/05/15 04:36:44;;;;;;;70.22;28.60;;;;;;;;;;5078596;28;20037;-88
2023/05/15 04:39:11;;;;;;;42.40;21.65;;;;;;;;;;5079264;28;20031;-87
2023/05/15 04:41:37;;;;;;;30.35;17.63;;;;;;;;;;5079567;28;20029;-87
2023/05/15 04:44:22;;;;;;;29.77;16.75;;;;;;;;;;5063285;28;20070;-87
2023/05/15 04:46:48;;;;;;;40.88;21.40;;;;;;;;;;5058201;28;20035;-87
2023/05/15 04:49:14;;;;;;;35.60;18.52;;;;;;;;;;5059364;28;20048;-86
2023/05/15 04:51:40;;;;;;;35.88;19.63;;;;;;;;;;5058274;28;20025;-86
2023/05/15 04:54:07;;;;;;;35.25;19.27;;;;;;;;;;5058200;28;20108;-87
2023/05/15 04:56:33;;;;;;;25.52;16.90;;;;;;;;;;5059232;28;20335;-88
2023/05/15 04:58:59;;;;;;;23.38;16.45;;;;;;;;;;5058154;28;20122;-87
2023/05/15 05:01:25;;;;;;;27.58;15.93;;;;;;;;;;5059235;28;20028;-87
2023/05/15 05:03:51;;;;;;;26.33;17.60;;;;;;;;;;5066272;28;20048;-89
2023/05/15 05:06:18;;;;;;;28.75;17.08;;;;;;;;;;5079110;28;20021;-88
2023/05/15 05:08:44;;;;;;;25.40;16.23;;;;;;;;;;5077545;28;20032;-89
2023/05/15 05:11:10;;;;;;;22.20;16.02;;;;;;;;;;5077990;28;20111;-89
2023/05/15 05:13:36;;;;;;;26.27;17.52;;;;;;;;;;5079224;28;20090;-89
2023/05/15 05:16:02;;;;;;;24.52;17.25;;;;;;;;;;5077384;28;20074;-88
2023/05/15 05:18:29;;;;;;;22.30;17.20;;;;;;;;;;5068071;28;20033;-88
2023/05/15 05:21:01;;;;;;;25.15;17.20;;;;;;;;;;5058267;28;20036;-88
2023/05/15 05:23:27;;;;;;;27.27;17.27;;;;;;;;;;5066569;28;20031;-85
2023/05/15 05:25:53;;;;;;;28.35;16.60;;;;;;;;;;5077590;28;20020;-85
2023/05/15 05:28:20;;;;;;;22.08;15.23;;;;;;;;;;5078662;28;20025;-86
2023/05/15 05:30:46;;;;;;;20.92;14.88;;;;;;;;;;5077378;28;20039;-85
2023/05/15 05:33:12;;;;;;;23.35;15.98;;;;;;;;;;5078446;28;20055;-86
2023/05/15 05:35:39;;;;;;;23.23;16.20;;;;;;;;;;5077417;28;20414;-89
2023/05/15 05:38:05;;;;;;;18.55;14.32;;;;;;;;;;5078262;28;20029;-89
2023/05/15 05:40:31;;;;;;;18.67;14.48;;;;;;;;;;5078027;28;20432;-89
2023/05/15 05:46:01;;;;;;;19.38;13.85;;;;;;;;;;5078442;28;20362;-88
2023/05/15 05:48:27;;;;;;;22.10;15.05;;;;;;;;;;5077351;28;20062;-90
2023/05/15 05:50:53;;;;;;;23.42;14.45;;;;;;;;;;5078364;28;20103;-89
2023/05/15 05:53:19;;;;;;;18.92;13.73;;;;;;;;;;5078377;28;20090;-89
2023/05/15 05:55:45;;;;;;;25.63;15.50;;;;;;;;;;5077098;28;20334;-89
2023/05/15 05:58:11;;;;;;;18.70;14.15;;;;;;;;;;5078316;28;20322;-89
2023/05/15 06:00:37;;;;;;;19.40;14.13;;;;;;;;;;5076527;28;20043;-89
2023/05/15 06:03:03;;;;;;;25.25;15.15;;;;;;;;;;5077512;28;20436;-86
2023/05/15 06:05:29;;;;;;;28.92;16.40;;;;;;;;;;5077740;28;20048;-86
2023/05/15 06:07:56;;;;;;;28.13;16.05;;;;;;;;;;5076098;28;20024;-86
2023/05/15 06:10:22;;;;;;;20.20;14.65;;;;;;;;;;5077795;28;20351;-86
2023/05/15 06:12:48;;;;;;;23.67;15.30;;;;;;;;;;5077786;28;20017;-87
2023/05/15 06:15:15;;;;;;;19.58;14.15;;;;;;;;;;5075327;28;20028;-86
2023/05/15 06:17:41;;;;;;;30.05;15.07;;;;;;;;;;5063291;28;20075;-86
2023/05/15 06:20:08;;;;;;;18.95;13.63;;;;;;;;;;5056627;28;20071;-87
2023/05/15 06:22:35;;;;;;;19.15;14.55;;;;;;;;;;5057550;28;20470;-86
2023/05/15 06:25:03;;;;;;;19.10;12.93;;;;;;;;;;5057905;28;20025;-87
2023/05/15 06:27:29;;;;;;;23.55;13.82;;;;;;;;;;5057879;28;20359;-88
2023/05/15 06:36:16;;;;;;;19.60;14.35;;;;;;;;;;5077768;28;20040;-88
2023/05/15 06:38:42;;;;;;;21.02;15.00;;;;;;;;;;5077874;28;20032;-87
2023/05/15 06:41:08;;;;;;;18.85;14.05;;;;;;;;;;5077370;28;20066;-88
2023/05/15 06:46:52;;;;;;;20.85;15.02;;;;;;;;;;5077830;28;20044;-87
2023/05/15 06:49:18;;;;;;;19.52;15.98;;;;;;;;;;5074817;28;20142;-87
2023/05/15 06:51:44;;;;;;;24.05;18.52;;;;;;;;;;5076337;28;20021;-87
2023/05/15 06:54:10;;;;;;;28.67;23.65;;;;;;;;;;5076673;28;20034;-87
2023/05/15 06:56:36;;;;;;;28.25;23.02;;;;;;;;;;5077116;28;20428;-86
2023/05/15 06:59:02;;;;;;;26.90;22.88;;;;;;;;;;5074638;28;20406;-86
2023/05/15 07:01:29;;;;;;;30.58;23.67;;;;;;;;;;5059352;28;20033;-85
2023/05/15 07:03:55;;;;;;;23.90;19.10;;;;;;;;;;5056709;28;20052;-84
2023/05/15 07:06:22;;;;;;;22.70;17.85;;;;;;;;;;5057081;28;20042;-86
2023/05/15 07:08:48;;;;;;;20.90;17.10;;;;;;;;;;5058655;28;21208;-86
2023/05/15 07:11:14;;;;;;;21.13;16.90;;;;;;;;;;5057530;28;20037;-85
2023/05/15 07:13:59;;;;;;;23.38;17.40;;;;;;;;;;5055996;28;20056;-85
2023/05/15 07:16:25;;;;;;;18.30;15.43;;;;;;;;;;5056203;28;20041;-86
2023/05/15 07:18:51;;;;;;;16.63;14.48;;;;;;;;;;5056126;28;20025;-86
2023/05/15 07:21:17;;;;;;;14.90;13.05;;;;;;;;;;5057055;28;20033;-86
2023/05/15 07:23:43;;;;;;;16.98;13.38;;;;;;;;;;5056409;28;20061;-88
2023/05/15 07:26:09;;;;;;;13.85;12.10;;;;;;;;;;5060835;28;20032;-87
2023/05/15 07:28:35;;;;;;;13.43;11.38;;;;;;;;;;5060832;28;20029;-86
2023/05/15 07:31:02;;;;;;;13.38;11.48;;;;;;;;;;5061007;28;20024;-88
2023/05/15 07:33:28;;;;;;;14.48;11.35;;;;;;;;;;5060604;28;20055;-87
2023/05/15 07:35:54;;;;;;;10.50;9.40;;;;;;;;;;5060621;28;20033;-87
2023/05/15 07:38:20;;;;;;;10.07;8.65;;;;;;;;;;5060654;28;20033;-86
2023/05/15 07:40:46;;;;;;;8.52;7.45;;;;;;;;;;5059359;28;20029;-87
2023/05/15 07:43:12;;;;;;;10.20;7.78;;;;;;;;;;5059065;28;20029;-84
2023/05/15 07:45:38;;;;;;;10.23;7.72;;;;;;;;;;5059396;28;20021;-86
2023/05/15 07:48:14;;;;;;;9.48;7.43;;;;;;;;;;5058798;28;20029;-86
2023/05/15 07:50:40;;;;;;;8.85;7.70;;;;;;;;;;5059399;28;20021;-84
2023/05/15 07:53:06;;;;;;;9.15;7.18;;;;;;;;;;5060203;28;20028;-84
2023/05/15 07:55:32;;;;;;;9.18;7.47;;;;;;;;;;5058639;28;20036;-87
2023/05/15 07:57:59;;;;;;;9.63;6.78;;;;;;;;;;5059026;28;20036;-87
2023/05/15 08:00:25;;;;;;;8.25;6.78;;;;;;;;;;5060085;28;20074;-85
2023/05/15 08:02:51;;;;;;;11.15;8.48;;;;;;;;;;5062835;28;20033;-86
2023/05/15 08:05:17;;;;;;;11.27;7.95;;;;;;;;;;5059765;28;20055;-86
2023/05/15 08:07:43;;;;;;;11.07;8.73;;;;;;;;;;5061407;28;20021;-87
2023/05/15 08:10:10;;;;;;;10.50;8.25;;;;;;;;;;5064582;28;20036;-86
2023/05/15 08:12:36;;;;;;;10.85;9.38;;;;;;;;;;5072866;28;20029;-89
2023/05/15 08:15:20;;;;;;;12.50;9.48;;;;;;;;;;5078608;28;20402;-89
2023/05/15 08:17:46;;;;;;;13.30;10.52;;;;;;;;;;5058992;28;20033;-90
2023/05/15 08:20:13;;;;;;;18.38;11.38;;;;;;;;;;5061951;28;20036;-91
2023/05/15 08:22:39;;;;;;;14.38;9.73;;;;;;;;;;5071328;28;20074;-91
2023/05/15 08:25:05;;;;;;;11.30;8.85;;;;;;;;;;5059944;28;20132;-90
2023/05/15 08:27:32;;;;;;;16.90;8.57;;;;;;;;;;5059759;28;20060;-91
2023/05/15 08:29:58;;;;;;;11.23;9.00;;;;;;;;;;5059820;28;20029;-90
2023/05/15 08:32:25;;;;;;;10.10;7.95;;;;;;;;;;5058697;28;20025;-90
2023/05/15 08:34:51;;;;;;;10.27;8.50;;;;;;;;;;5059843;28;20063;-88
2023/05/15 08:37:17;;;;;;;9.93;8.93;;;;;;;;;;5057515;28;20045;-90
2023/05/15 08:39:43;;;;;;;12.77;8.80;;;;;;;;;;5058115;28;20032;-83
2023/05/15 08:42:18;;;;;;;13.40;10.18;;;;;;;;;;5059259;28;20461;-89
2023/05/15 08:44:45;;;;;;;14.95;9.82;;;;;;;;;;5059257;28;20017;-89
2023/05/15 08:47:11;;;;;;;12.45;10.45;;;;;;;;;;5059053;28;20489;-90
2023/05/15 08:49:49;;;;;;;15.68;12.45;;;;;;;;;;5058377;28;20025;-87
2023/05/15 08:52:15;;;;;;;15.68;13.60;;;;;;;;;;5059389;28;20032;-86
2023/05/15 08:54:42;;;;;;;15.98;13.23;;;;;;;;;;5058157;28;20037;-88
2023/05/15 08:57:08;;;;;;;14.43;12.25;;;;;;;;;;5058121;28;20127;-88
2023/05/15 08:59:34;;;;;;;14.50;12.05;;;;;;;;;;5058324;28;20055;-88
2023/05/15 09:02:01;;;;;;;17.63;12.93;;;;;;;;;;5058815;28;20025;-87
2023/05/15 09:04:27;;;;;;;19.33;12.05;;;;;;;;;;5058946;28;20041;-87
2023/05/15 09:06:54;;;;;;;14.32;11.30;;;;;;;;;;5059204;28;20323;-86
2023/05/15 09:09:20;;;;;;;14.18;11.85;;;;;;;;;;5057472;28;20051;-87
2023/05/15 09:11:47;;;;;;;16.42;12.73;;;;;;;;;;5058942;28;20292;-87
2023/05/15 09:14:13;;;;;;;23.75;16.13;;;;;;;;;;5058727;28;20033;-88
2023/05/15 09:16:40;;;;;;;30.48;17.70;;;;;;;;;;5059438;28;20044;-87
2023/05/15 09:19:06;;;;;;;23.65;18.70;;;;;;;;;;5064239;28;20108;-88
2023/05/15 09:21:33;;;;;;;47.95;21.08;;;;;;;;;;5070652;28;20029;-86
2023/05/15 09:24:18;;;;;;;23.48;18.20;;;;;;;;;;5058481;28;20025;-87
2023/05/15 09:26:45;;;;;;;28.10;21.23;;;;;;;;;;5049523;28;20374;-87
2023/05/15 09:29:11;;;;;;;31.63;23.52;;;;;;;;;;5057370;28;20023;-88
2023/05/15 09:31:37;;;;;;;31.90;24.48;;;;;;;;;;5059687;28;20033;-86
2023/05/15 09:34:04;;;;;;;32.47;24.42;;;;;;;;;;5058447;28;20033;-87
2023/05/15 09:36:31;;;;;;;32.88;25.63;;;;;;;;;;5071761;28;20047;-74
2023/05/15 09:38:58;;;;;;;42.70;28.50;;;;;;;;;;5066530;28;20108;-83
2023/05/15 09:41:25;;;;;;;43.53;28.30;;;;;;;;;;5058121;28;20040;-84
2023/05/15 09:43:52;;;;;;;36.97;27.85;;;;;;;;;;5057839;28;20025;-84
2023/05/15 09:46:18;;;;;;;38.63;28.50;;;;;;;;;;5058350;28;20020;-84
2023/05/15 09:48:44;;;;;;;44.63;32.03;;;;;;;;;;5057627;28;20326;-85
2023/05/15 09:51:17;;;;;;;43.90;32.67;;;;;;;;;;5057180;28;20029;-91
2023/05/15 09:53:53;;;;;;;51.63;34.28;;;;;;;;;;5057917;28;20028;-90
2023/05/15 09:56:19;;;;;;;45.90;34.33;;;;;;;;;;5058235;28;20032;-86
2023/05/15 09:58:52;;;;;;;42.80;32.75;;;;;;;;;;5073097;28;20273;-89
2023/05/15 10:01:22;;;;;;;41.20;32.33;;;;;;;;;;5056851;28;20025;-92
2023/05/15 10:04:01;;;;;;;45.95;34.13;;;;;;;;;;5057451;28;20049;-93
2023/05/15 10:06:34;;;;;;;47.85;34.28;;;;;;;;;;5056725;28;20029;-91
2023/05/15 10:09:01;;;;;;;44.17;32.85;;;;;;;;;;5056646;28;20044;-91
2023/05/15 10:11:28;;;;;;;48.45;35.95;;;;;;;;;;5062116;28;20041;-93
2023/05/15 10:13:55;;;;;;;46.45;34.92;;;;;;;;;;5076193;28;20070;-92
2023/05/15 10:16:22;;;;;;;50.67;36.53;;;;;;;;;;5077883;28;20318;-91
2023/05/15 10:18:51;;;;;;;50.55;36.78;;;;;;;;;;5063803;28;20104;-92
2023/05/15 10:21:19;;;;;;;44.63;35.92;;;;;;;;;;5056765;28;20039;-92
2023/05/15 10:23:47;;;;;;;46.10;34.40;;;;;;;;;;5056824;28;20025;-91
2023/05/15 10:26:21;;;;;;;48.25;37.63;;;;;;;;;;5067340;28;20330;-92
2023/05/15 10:28:48;;;;;;;50.03;37.67;;;;;;;;;;5061261;28;20025;-91
2023/05/15 10:31:14;;;;;;;48.22;37.67;;;;;;;;;;5064761;28;20032;-92
2023/05/15 10:33:40;;;;;;;52.90;39.70;;;;;;;;;;5069327;28;20076;-92
2023/05/15 10:36:07;;;;;;;51.10;37.70;;;;;;;;;;5061090;28;20048;-90
2023/05/15 10:38:33;;;;;;;49.85;39.15;;;;;;;;;;5059950;28;20350;-91
2023/05/15 10:41:00;;;;;;;53.53;40.55;;;;;;;;;;5056177;28;20331;-89
2023/05/15 10:43:28;;;;;;;45.90;36.28;;;;;;;;;;5058840;28;20498;-92
2023/05/15 10:45:55;;;;;;;44.55;36.75;;;;;;;;;;5057703;28;20032;-88
2023/05/15 10:48:21;;;;;;;48.90;36.50;;;;;;;;;;5058911;28;20369;-89
2023/05/15 10:50:48;;;;;;;44.63;35.58;;;;;;;;;;5057289;28;20032;-91
2023/05/15 10:53:15;;;;;;;46.65;35.47;;;;;;;;;;5056289;28;20376;-90
2023/05/15 10:55:41;;;;;;;49.53;36.42;;;;;;;;;;5057002;28;20025;-90
2023/05/15 10:58:10;;;;;;;50.92;38.10;;;;;;;;;;5057340;28;20296;-91
2023/05/15 11:00:45;;;;;;;48.60;37.75;;;;;;;;;;5057999;28;20411;-88
2023/05/15 11:03:15;;;;;;;49.92;40.35;;;;;;;;;;5067383;28;20426;-93
2023/05/15 11:06:00;;;;;;;53.67;40.30;;;;;;;;;;5060004;28;20430;-95
2023/05/15 11:08:27;;;;;;;50.08;40.35;;;;;;;;;;5076753;28;20355;-90
2023/05/15 11:10:53;;;;;;;53.25;41.13;;;;;;;;;;5054293;28;20335;-93
2023/05/15 11:13:20;;;;;;;56.72;41.60;;;;;;;;;;5066913;28;20029;-89
2023/05/15 11:15:47;;;;;;;58.65;44.42;;;;;;;;;;5060672;28;20041;-89
2023/05/15 11:18:13;;;;;;;56.60;44.85;;;;;;;;;;5061191;28;20445;-89
2023/05/15 11:20:42;;;;;;;59.10;43.13;;;;;;;;;;5060852;28;20040;-89
2023/05/15 11:23:09;;;;;;;59.13;44.75;;;;;;;;;;5060011;28;20024;-90
2023/05/15 11:25:36;;;;;;;60.83;45.63;;;;;;;;;;5061316;28;20100;-90
2023/05/15 11:28:03;;;;;;;65.32;46.17;;;;;;;;;;5059897;28;20028;-90
2023/05/15 11:30:39;;;;;;;61.38;44.83;;;;;;;;;;5059756;28;20071;-90
2023/05/15 11:33:10;;;;;;;56.50;44.45;;;;;;;;;;5060890;28;20025;-91
2023/05/15 11:35:45;;;;;;;60.38;46.33;;;;;;;;;;5061050;28;20029;-90
2023/05/15 11:38:15;;;;;;;61.28;45.80;;;;;;;;;;5061115;28;20028;-89
2023/05/15 11:40:48;;;;;;;67.78;48.03;;;;;;;;;;5059294;28;20087;-92
2023/05/15 11:43:22;;;;;;;58.55;44.72;;;;;;;;;;5060579;28;20411;-89
2023/05/15 11:45:52;;;;;;;60.50;44.90;;;;;;;;;;5059795;28;20040;-93
2023/05/15 11:48:19;;;;;;;61.67;45.15;;;;;;;;;;5061263;28;20021;-93
2023/05/15 11:50:45;;;;;;;57.15;44.28;;;;;;;;;;5070951;28;20039;-93
2023/05/15 11:53:12;;;;;;;55.03;42.58;;;;;;;;;;5074533;28;20036;-88
2023/05/15 11:55:39;;;;;;;57.35;44.50;;;;;;;;;;5080153;28;20337;-86
2023/05/15 11:58:06;;;;;;;54.50;42.75;;;;;;;;;;5080285;28;20036;-84
2023/05/15 12:03:49;;;;;;;57.38;44.42;;;;;;;;;;5075312;28;20139;-88
2023/05/15 12:06:16;;;;;;;56.95;43.53;;;;;;;;;;5060289;28;20037;-88
2023/05/15 12:08:42;;;;;;;54.55;43.15;;;;;;;;;;5060368;28;20340;-88
2023/05/15 12:11:08;;;;;;;62.03;44.72;;;;;;;;;;5063786;28;20047;-88
2023/05/15 12:13:35;;;;;;;57.90;43.72;;;;;;;;;;5071836;28;20418;-89
2023/05/15 12:16:02;;;;;;;54.35;43.10;;;;;;;;;;5060598;28;20032;-88
2023/05/15 12:18:28;;;;;;;56.67;45.85;;;;;;;;;;5059060;28;20036;-88
2023/05/15 12:20:54;;;;;;;54.40;41.92;;;;;;;;;;5058874;28;20419;-89
2023/05/15 12:23:21;;;;;;;58.20;44.90;;;;;;;;;;5060212;28;20033;-89
2023/05/15 12:25:48;;;;;;;59.03;43.50;;;;;;;;;;5068234;28;20403;-90
2023/05/15 12:28:14;;;;;;;56.53;43.03;;;;;;;;;;5049490;28;20025;-86
2023/05/15 12:30:41;;;;;;;51.88;40.78;;;;;;;;;;5059692;28;20025;-88
2023/05/15 12:33:08;;;;;;;51.42;40.78;;;;;;;;;;5071483;28;20032;-89
2023/05/15 12:35:35;;;;;;;52.40;39.10;;;;;;;;;;5078809;28;20048;-88
2023/05/15 12:38:04;;;;;;;52.00;39.47;;;;;;;;;;5079556;28;20107;-87
2023/05/15 12:40:34;;;;;;;53.15;40.50;;;;;;;;;;5079443;28;20077;-89
2023/05/15 12:43:05;;;;;;;53.03;39.78;;;;;;;;;;5078498;28;20056;-89
2023/05/15 12:45:36;;;;;;;52.75;38.88;;;;;;;;;;5078591;28;20315;-90
2023/05/15 12:48:02;;;;;;;52.93;39.63;;;;;;;;;;5079584;28;20029;-89
2023/05/15 12:50:29;;;;;;;45.50;36.55;;;;;;;;;;5079318;28;20020;-90
2023/05/15 12:52:56;;;;;;;52.67;38.72;;;;;;;;;;5078286;28;20039;-89
2023/05/15 12:55:27;;;;;;;48.97;39.22;;;;;;;;;;5079591;28;20020;-89
2023/05/15 12:57:53;;;;;;;53.83;39.35;;;;;;;;;;5079444;28;20314;-89
2023/05/15 13:00:21;;;;;;;49.03;38.58;;;;;;;;;;5078937;28;20349;-90
2023/05/15 13:02:54;;;;;;;53.42;39.58;;;;;;;;;;5078853;28;20094;-90
2023/05/15 13:05:22;;;;;;;53.45;39.40;;;;;;;;;;5078499;28;20044;-89
2023/05/15 13:07:48;;;;;;;38.45;28.40;;;;;;;;;;5078883;28;20029;-90
2023/05/15 13:10:14;;;;;;;50.13;34.88;;;;;;;;;;5078001;28;20145;-89
2023/05/15 13:12:44;;;;;;;38.28;29.83;;;;;;;;;;5078058;28;20032;-90
2023/05/15 13:15:28;;;;;;;37.20;27.67;;;;;;;;;;5078703;28;20024;-89
2023/05/15 13:18:09;;;;;;;29.08;21.67;;;;;;;;;;5077705;28;20025;-89
2023/05/15 13:20:40;;;;;;;27.33;19.60;;;;;;;;;;5078824;28;20024;-89
2023/05/15 13:23:06;;;;;;;28.38;20.45;;;;;;;;;;5077555;28;20071;-89
2023/05/15 13:25:33;;;;;;;25.02;18.77;;;;;;;;;;5076919;28;20062;-89
2023/05/15 13:28:00;;;;;;;22.55;16.98;;;;;;;;;;5071777;28;20116;-89
2023/05/15 13:30:27;;;;;;;24.92;20.08;;;;;;;;;;5058393;28;20162;-89
2023/05/15 13:32:53;;;;;;;26.75;19.60;;;;;;;;;;5057377;28;20033;-89
2023/05/15 13:35:19;;;;;;;25.48;17.42;;;;;;;;;;5058347;28;20438;-89
2023/05/15 13:37:45;;;;;;;22.92;16.83;;;;;;;;;;5057379;28;20069;-89
2023/05/15 13:40:12;;;;;;;21.75;16.15;;;;;;;;;;5058385;28;20100;-89
2023/05/15 13:42:39;;;;;;;20.30;16.77;;;;;;;;;;5058205;28;20100;-89
2023/05/15 13:45:06;;;;;;;20.35;16.05;;;;;;;;;;5057310;28;20322;-89
2023/05/15 13:47:32;;;;;;;19.40;15.43;;;;;;;;;;5058053;28;20028;-89
2023/05/15 13:49:58;;;;;;;24.08;16.67;;;;;;;;;;5057934;28;20052;-89
2023/05/15 13:52:25;;;;;;;24.80;17.65;;;;;;;;;;5057033;28;20438;-89
2023/05/15 13:54:51;;;;;;;23.75;15.90;;;;;;;;;;5058107;28;20054;-90
2023/05/15 13:57:17;;;;;;;22.83;16.65;;;;;;;;;;5057115;28;20025;-89
2023/05/15 13:59:44;;;;;;;20.77;16.42;;;;;;;;;;5058003;28;20095;-89
2023/05/15 14:02:10;;;;;;;25.73;16.25;;;;;;;;;;5057859;28;20029;-89
2023/05/15 14:04:36;;;;;;;20.52;15.77;;;;;;;;;;5056467;28;20334;-89
2023/05/15 14:07:02;;;;;;;22.65;16.42;;;;;;;;;;5057980;28;20029;-89
2023/05/15 14:09:28;;;;;;;25.42;18.52;;;;;;;;;;5056952;28;20112;-89
2023/05/15 14:11:55;;;;;;;21.95;16.52;;;;;;;;;;5040589;28;20067;-90
2023/05/15 14:14:21;;;;;;;18.88;16.88;;;;;;;;;;5058222;28;20090;-89
2023/05/15 14:16:48;;;;;;;19.00;14.55;;;;;;;;;;5056944;28;20029;-89
2023/05/15 14:19:14;;;;;;;21.00;17.65;;;;;;;;;;5057718;28;20029;-90
2023/05/15 14:21:40;;;;;;;43.20;27.83;;;;;;;;;;5057797;28;20056;-89
2023/05/15 14:24:06;;;;;;;209.80;130.48;;;;;;;;;;5056936;28;20029;-89
2023/05/15 14:26:32;;;;;;;219.40;141.00;;;;;;;;;;5057536;28;20056;-89
2023/05/15 14:28:58;;;;;;;50.65;36.85;;;;;;;;;;5057570;28;20017;-89
2023/05/15 14:31:24;;;;;;;44.83;33.05;;;;;;;;;;5056474;28;20052;-89
2023/05/15 14:33:51;;;;;;;39.38;30.38;;;;;;;;;;5057387;28;20029;-88
2023/05/15 14:36:17;;;;;;;42.13;31.77;;;;;;;;;;5056745;28;20033;-90
2023/05/15 14:38:45;;;;;;;40.90;31.63;;;;;;;;;;5057443;28;20399;-88
2023/05/15 14:41:11;;;;;;;46.75;37.83;;;;;;;;;;5057240;28;20415;-89
2023/05/15 14:43:37;;;;;;;54.97;42.67;;;;;;;;;;5056444;28;20044;-89
2023/05/15 14:46:04;;;;;;;47.13;37.63;;;;;;;;;;5056538;28;20017;-89
2023/05/15 14:48:30;;;;;;;43.75;32.03;;;;;;;;;;5056381;28;20116;-89
2023/05/15 14:50:56;;;;;;;39.65;30.20;;;;;;;;;;5057835;28;20067;-89
2023/05/15 14:53:22;;;;;;;40.70;31.08;;;;;;;;;;5057313;28;20025;-89
2023/05/15 14:55:48;;;;;;;45.13;32.97;;;;;;;;;;5056321;28;20033;-89
2023/05/15 14:58:14;;;;;;;47.20;33.72;;;;;;;;;;5057212;28;20029;-88
2023/05/15 15:00:43;;;;;;;38.28;32.28;;;;;;;;;;5057049;28;20300;-87
2023/05/15 15:03:09;;;;;;;40.97;32.22;;;;;;;;;;5056494;28;20029;-90
2023/05/15 15:05:35;;;;;;;45.15;32.78;;;;;;;;;;5055829;28;20056;-89
2023/05/15 15:08:02;;;;;;;52.00;35.40;;;;;;;;;;5057163;28;20029;-89
2023/05/15 15:10:28;;;;;;;76.45;41.00;;;;;;;;;;5055964;28;20025;-89